createdAt,value
2018-05-12T00:02:19.422Z,60.70
2018-05-12T00:04:47.694Z,58.11
2018-05-12T00:07:16.082Z,57.90
2018-05-12T00:09:44.642Z,57.98
2018-05-12T00:12:13.228Z,57.25
2018-05-12T00:14:41.744Z,58.28
2018-05-12T00:17:09.894Z,58.75
2018-05-12T00:19:38.284Z,58.97
2018-05-12T00:22:06.635Z,58.25
2018-05-12T00:24:35.031Z,57.98
2018-05-12T00:27:03.708Z,58.21
2018-05-12T00:29:31.979Z,58.05
2018-05-12T00:32:00.286Z,58.24
2018-05-12T00:34:28.632Z,58.00
2018-05-12T00:36:57.030Z,57.95
2018-05-12T00:39:25.387Z,58.10
2018-05-12T00:41:53.594Z,57.76
2018-05-12T00:44:22.168Z,57.19
2018-05-12T00:46:50.613Z,56.96
2018-05-12T00:49:19.129Z,57.11
2018-05-12T00:51:47.595Z,58.10
2018-05-12T00:54:16.267Z,57.65
2018-05-12T00:56:44.713Z,57.63
2018-05-12T00:59:13.228Z,58.13
2018-05-12T01:01:41.910Z,58.63
2018-05-12T01:04:10.304Z,59.39
2018-05-12T01:06:38.577Z,58.15
2018-05-12T01:09:06.987Z,58.38
2018-05-12T01:11:35.553Z,58.17
2018-05-12T01:14:04.117Z,59.04
2018-05-12T01:16:32.763Z,58.27
2018-05-12T01:19:01.072Z,58.66
2018-05-12T01:21:29.518Z,58.22
2018-05-12T01:23:57.748Z,59.70
2018-05-12T01:26:25.966Z,59.69
2018-05-12T01:28:54.401Z,60.19
2018-05-12T01:31:22.761Z,61.77
2018-05-12T01:33:51.042Z,62.59
2018-05-12T01:36:19.718Z,62.02
2018-05-12T01:38:48.304Z,61.63
2018-05-12T01:41:16.701Z,62.90
2018-05-12T01:43:45.163Z,61.88
2018-05-12T01:46:13.847Z,60.27
2018-05-12T01:48:42.033Z,60.33
2018-05-12T01:51:10.490Z,62.43
2018-05-12T01:53:38.677Z,61.92
2018-05-12T01:56:07.047Z,60.75
2018-05-12T01:58:35.288Z,60.76
2018-05-12T02:01:03.716Z,60.14
2018-05-12T02:03:32.183Z,59.19
2018-05-12T02:06:00.485Z,59.29
2018-05-12T02:08:28.931Z,58.98
2018-05-12T02:10:57.125Z,59.06
2018-05-12T02:13:25.595Z,60.40
2018-05-12T02:15:54.269Z,61.57
2018-05-12T02:18:22.671Z,61.17
2018-05-12T02:20:51.173Z,59.89
2018-05-12T02:23:19.722Z,59.58
2018-05-12T02:25:47.907Z,59.57
2018-05-12T02:28:16.469Z,59.99
2018-05-12T02:30:44.940Z,62.78
2018-05-12T02:33:13.415Z,61.85
2018-05-12T02:35:41.939Z,60.31
2018-05-12T02:38:11.121Z,60.63
2018-05-12T02:40:39.558Z,60.09
2018-05-12T02:43:07.882Z,61.37
2018-05-12T02:45:36.445Z,63.82
2018-05-12T02:48:04.738Z,65.85
2018-05-12T02:50:33.312Z,67.40
2018-05-12T02:53:01.781Z,68.03
2018-05-12T02:55:30.086Z,66.21
2018-05-12T02:57:58.541Z,66.66
2018-05-12T03:00:26.961Z,64.82
2018-05-12T03:02:55.314Z,63.49
2018-05-12T03:05:23.779Z,62.72
2018-05-12T03:07:52.178Z,62.17
2018-05-12T03:10:20.751Z,63.21
2018-05-12T03:12:48.945Z,66.41
2018-05-12T03:15:17.401Z,67.83
2018-05-12T03:17:45.743Z,68.12
2018-05-12T03:20:14.053Z,68.03
2018-05-12T03:22:42.363Z,65.30
2018-05-12T03:25:10.822Z,67.38
2018-05-12T03:27:39.809Z,69.15
2018-05-12T03:30:08.269Z,66.44
2018-05-12T03:32:37.070Z,66.32
2018-05-12T03:35:05.441Z,66.69
2018-05-12T03:37:33.818Z,64.25
2018-05-12T03:40:02.298Z,62.82
2018-05-12T03:42:30.704Z,62.45
2018-05-12T03:44:59.369Z,61.80
2018-05-12T03:47:28.055Z,61.89
2018-05-12T03:49:56.598Z,63.62
2018-05-12T03:52:25.109Z,62.78
2018-05-12T03:54:53.496Z,65.55
2018-05-12T03:57:21.782Z,64.11
2018-05-12T03:59:50.106Z,62.39
2018-05-12T04:02:18.439Z,63.08
2018-05-12T04:04:59.747Z,61.00
2018-05-12T04:07:40.939Z,60.33
2018-05-12T04:10:18.099Z,60.62
2018-05-12T04:12:46.339Z,60.50
2018-05-12T04:15:14.913Z,60.13
2018-05-12T04:17:44.333Z,60.32
2018-05-12T04:20:12.807Z,59.71
2018-05-12T04:22:41.293Z,59.71
2018-05-12T04:25:09.769Z,59.57
2018-05-12T04:27:38.107Z,59.11
2018-05-12T04:30:06.826Z,61.67
2018-05-12T04:32:35.405Z,63.54
2018-05-12T04:35:04.243Z,62.56
2018-05-12T04:37:32.610Z,63.09
2018-05-12T04:40:00.961Z,62.22
2018-05-12T04:42:29.358Z,60.20
2018-05-12T04:44:58.113Z,59.63
2018-05-12T04:47:26.698Z,60.23
2018-05-12T04:49:55.381Z,59.09
2018-05-12T04:52:23.421Z,58.84
2018-05-12T04:54:51.737Z,59.39
2018-05-12T04:57:19.743Z,59.68
2018-05-12T04:59:47.711Z,60.78
2018-05-12T05:02:15.602Z,61.31
2018-05-12T05:04:43.571Z,60.88
2018-05-12T05:07:11.573Z,58.79
2018-05-12T05:09:39.586Z,59.37
2018-05-12T05:12:07.696Z,58.04
2018-05-12T05:14:35.617Z,57.90
2018-05-12T05:17:03.670Z,59.52
2018-05-12T05:19:31.796Z,60.16
2018-05-12T05:21:59.934Z,58.53
2018-05-12T05:24:27.964Z,58.63
2018-05-12T05:26:55.994Z,59.75
2018-05-12T05:29:23.954Z,60.89
2018-05-12T05:31:51.982Z,60.92
2018-05-12T05:34:19.916Z,60.99
2018-05-12T05:36:48.263Z,60.32
2018-05-12T05:39:16.199Z,60.34
2018-05-12T05:41:44.304Z,57.53
2018-05-12T05:44:12.274Z,56.17
2018-05-12T05:46:40.238Z,54.71
2018-05-12T05:49:08.243Z,56.14
2018-05-12T05:51:36.251Z,55.40
2018-05-12T05:54:04.183Z,55.81
2018-05-12T05:56:32.197Z,53.95
2018-05-12T05:59:00.105Z,55.75
2018-05-12T06:01:28.134Z,58.05
2018-05-12T06:03:56.144Z,56.67
2018-05-12T06:06:24.663Z,55.76
2018-05-12T06:08:52.689Z,53.09
2018-05-12T06:11:20.741Z,52.67
2018-05-12T06:13:48.798Z,52.49
2018-05-12T06:16:16.792Z,53.07
2018-05-12T06:18:44.783Z,51.35
2018-05-12T06:21:12.787Z,48.54
2018-05-12T06:23:41.199Z,48.57
2018-05-12T06:26:09.155Z,47.82
2018-05-12T06:28:37.250Z,47.67
2018-05-12T06:31:05.617Z,47.07
2018-05-12T06:33:33.685Z,47.27
2018-05-12T06:36:01.809Z,50.09
2018-05-12T06:38:30.317Z,50.28
2018-05-12T06:40:58.254Z,50.42
2018-05-12T06:43:26.293Z,47.56
2018-05-12T06:45:54.315Z,47.53
2018-05-12T06:48:22.385Z,45.44
2018-05-12T06:50:50.424Z,45.36
2018-05-12T06:53:18.477Z,45.45
2018-05-12T06:55:46.528Z,44.28
2018-05-12T06:58:14.569Z,44.43
2018-05-12T07:00:42.802Z,43.20
2018-05-12T07:03:10.942Z,44.64
2018-05-12T07:05:39.004Z,41.79
2018-05-12T07:08:06.990Z,39.68
2018-05-12T07:10:35.138Z,39.75
2018-05-12T07:13:03.126Z,36.26
2018-05-12T07:15:31.254Z,38.36
2018-05-12T07:17:59.385Z,38.94
2018-05-12T07:20:27.450Z,36.26
2018-05-12T07:22:55.498Z,36.64
2018-05-12T07:25:23.545Z,36.99
2018-05-12T07:27:51.576Z,37.50
2018-05-12T07:30:19.583Z,35.90
2018-05-12T07:32:47.598Z,37.46
2018-05-12T07:35:15.642Z,37.05
2018-05-12T07:37:43.635Z,36.26
2018-05-12T07:40:12.097Z,38.69
2018-05-12T07:42:40.131Z,38.60
2018-05-12T07:45:08.126Z,38.90
2018-05-12T07:47:36.114Z,37.09
2018-05-12T07:50:04.197Z,38.54
2018-05-12T07:52:32.153Z,39.55
2018-05-12T07:55:00.191Z,37.84
2018-05-12T07:57:28.204Z,38.12
2018-05-12T07:59:56.231Z,35.48
2018-05-12T08:02:24.352Z,35.18
2018-05-12T08:04:52.348Z,36.83
2018-05-12T08:07:20.338Z,36.50
2018-05-12T08:09:48.336Z,36.24
2018-05-12T08:12:16.454Z,35.66
2018-05-12T08:14:44.461Z,35.88
2018-05-12T08:17:12.437Z,35.77
2018-05-12T08:19:40.443Z,34.30
2018-05-12T08:22:08.488Z,33.60
2018-05-12T08:24:36.511Z,33.87
2018-05-12T08:27:04.557Z,33.56
2018-05-12T08:29:32.600Z,33.71
2018-05-12T08:32:00.661Z,32.17
2018-05-12T08:34:28.682Z,31.58
2018-05-12T08:36:56.682Z,32.43
2018-05-12T08:39:24.732Z,32.16
2018-05-12T08:41:53.089Z,33.47
2018-05-12T08:44:21.102Z,34.75
2018-05-12T08:46:49.120Z,35.99
2018-05-12T08:49:17.145Z,36.11
2018-05-12T08:51:45.156Z,36.11
2018-05-12T08:54:13.190Z,37.29
2018-05-12T08:56:41.213Z,36.30
2018-05-12T08:59:09.162Z,34.89
2018-05-12T09:01:37.176Z,35.21
2018-05-12T09:04:05.174Z,32.55
2018-05-12T09:06:33.126Z,34.40
2018-05-12T09:09:01.133Z,33.89
2018-05-12T09:11:29.185Z,33.06
2018-05-12T09:13:57.247Z,32.89
2018-05-12T09:16:25.259Z,31.60
2018-05-12T09:18:53.258Z,33.43
2018-05-12T09:21:21.243Z,30.58
2018-05-12T09:23:49.362Z,30.09
2018-05-12T09:26:17.387Z,31.80
2018-05-12T09:28:45.397Z,30.40
2018-05-12T09:31:13.397Z,33.68
2018-05-12T09:33:41.408Z,33.40
2018-05-12T09:36:09.540Z,32.69
2018-05-12T09:38:37.550Z,33.67
2018-05-12T09:41:05.544Z,34.12
2018-05-12T09:43:33.946Z,34.13
2018-05-12T09:46:01.931Z,30.39
2018-05-12T09:48:29.983Z,28.62
2018-05-12T09:50:57.967Z,29.72
2018-05-12T09:53:25.995Z,26.72
2018-05-12T09:55:54.027Z,25.65
2018-05-12T09:58:21.978Z,25.53
2018-05-12T10:00:49.945Z,25.93
2018-05-12T10:03:17.999Z,24.90
2018-05-12T10:05:45.974Z,27.47
2018-05-12T10:08:13.975Z,29.20
2018-05-12T10:10:42.050Z,29.35
2018-05-12T10:13:10.025Z,29.85
2018-05-12T10:15:38.133Z,31.29
2018-05-12T10:18:06.182Z,29.16
2018-05-12T10:20:34.210Z,29.08
2018-05-12T10:23:02.279Z,28.43
2018-05-12T10:25:30.530Z,27.55
2018-05-12T10:27:58.794Z,28.82
2018-05-12T10:30:27.059Z,27.28
2018-05-12T10:32:55.289Z,28.01
2018-05-12T10:35:23.554Z,22.99
2018-05-12T10:37:51.810Z,22.14
2018-05-12T10:40:20.056Z,24.37
2018-05-12T10:42:48.319Z,24.39
2018-05-12T10:45:17.025Z,24.82
2018-05-12T10:47:45.393Z,25.51
2018-05-12T10:50:13.588Z,24.62
2018-05-12T10:52:41.827Z,24.85
2018-05-12T10:55:10.115Z,22.91
2018-05-12T10:57:38.378Z,23.01
2018-05-12T11:00:06.652Z,20.59
2018-05-12T11:02:34.873Z,20.52
2018-05-12T11:05:03.731Z,21.08
2018-05-12T11:07:31.798Z,21.66
2018-05-12T11:09:59.897Z,22.86
2018-05-12T11:12:27.951Z,24.29
2018-05-12T11:14:56.220Z,23.03
2018-05-12T11:17:24.258Z,23.42
2018-05-12T11:19:52.362Z,23.99
2018-05-12T11:22:20.552Z,24.36
2018-05-12T11:24:48.528Z,24.26
2018-05-12T11:27:16.580Z,25.65
2018-05-12T11:29:44.583Z,25.87
2018-05-12T11:32:12.557Z,26.08
2018-05-12T11:34:40.603Z,24.59
2018-05-12T11:37:08.585Z,25.67
2018-05-12T11:39:36.545Z,26.95
2018-05-12T11:42:04.550Z,24.98
2018-05-12T11:44:32.534Z,24.86
2018-05-12T11:47:00.900Z,25.24
2018-05-12T11:49:28.907Z,23.22
2018-05-12T11:51:56.925Z,24.04
2018-05-12T11:54:24.912Z,23.61
2018-05-12T11:56:52.845Z,24.94
2018-05-12T11:59:20.764Z,25.97
2018-05-12T12:01:48.784Z,25.75
2018-05-12T12:04:16.881Z,25.36
2018-05-12T12:06:44.844Z,28.18
2018-05-12T12:09:12.945Z,26.49
2018-05-12T12:11:40.932Z,24.80
2018-05-12T12:14:08.969Z,23.72
2018-05-12T12:16:37.049Z,24.36
2018-05-12T12:19:05.053Z,24.39
2018-05-12T12:21:33.032Z,25.29
2018-05-12T12:24:01.030Z,24.07
2018-05-12T12:26:29.055Z,26.71
2018-05-12T12:28:57.051Z,26.40
2018-05-12T12:31:25.085Z,25.96
2018-05-12T12:33:53.117Z,25.44
2018-05-12T12:36:21.250Z,24.85
2018-05-12T12:38:49.392Z,24.43
2018-05-12T12:41:18.368Z,24.55
2018-05-12T12:43:46.772Z,24.29
2018-05-12T12:46:15.661Z,25.17
2018-05-12T12:48:44.376Z,25.19
2018-05-12T12:51:12.805Z,23.88
2018-05-12T12:53:40.948Z,23.16
2018-05-12T12:56:09.017Z,23.23
2018-05-12T12:58:37.069Z,21.20
2018-05-12T13:01:05.099Z,22.69
2018-05-12T13:03:33.197Z,23.30
2018-05-12T13:06:01.172Z,22.31
2018-05-12T13:08:29.186Z,22.64
2018-05-12T13:10:57.129Z,22.15
2018-05-12T13:13:25.178Z,22.18
2018-05-12T13:15:53.174Z,22.12
2018-05-12T13:18:21.078Z,21.84
2018-05-12T13:20:49.122Z,22.12
2018-05-12T13:23:17.111Z,23.33
2018-05-12T13:25:45.250Z,22.34
2018-05-12T13:28:13.257Z,22.46
2018-05-12T13:30:41.279Z,23.63
2018-05-12T13:33:09.247Z,24.91
2018-05-12T13:35:37.508Z,24.47
2018-05-12T13:38:05.622Z,22.45
2018-05-12T13:40:33.606Z,21.76
2018-05-12T13:43:01.730Z,23.23
2018-05-12T13:45:29.810Z,22.90
2018-05-12T13:47:57.835Z,24.71
2018-05-12T13:50:26.420Z,24.47
2018-05-12T13:52:54.422Z,23.55
2018-05-12T13:55:22.400Z,22.02
2018-05-12T13:57:50.412Z,23.36
2018-05-12T14:00:18.437Z,22.77
2018-05-12T14:02:46.453Z,20.78
2018-05-12T14:05:14.479Z,21.92
2018-05-12T14:07:42.853Z,21.65
2018-05-12T14:10:10.874Z,22.69
2018-05-12T14:12:38.803Z,20.78
2018-05-12T14:15:06.865Z,21.52
2018-05-12T14:17:35.339Z,19.65
2018-05-12T14:20:03.759Z,20.34
2018-05-12T14:22:32.259Z,20.20
2018-05-12T14:25:00.775Z,23.94
2018-05-12T14:27:28.921Z,25.15
2018-05-12T14:29:56.928Z,26.03
2018-05-12T14:32:25.060Z,26.12
2018-05-12T14:34:53.127Z,26.15
2018-05-12T14:37:21.214Z,27.80
2018-05-12T14:39:49.281Z,26.06
2018-05-12T14:42:17.318Z,25.05
2018-05-12T14:44:45.356Z,25.48
2018-05-12T14:47:13.426Z,24.27
2018-05-12T14:49:41.440Z,24.63
2018-05-12T14:52:09.975Z,24.45
2018-05-12T14:54:38.017Z,25.72
2018-05-12T14:57:06.049Z,27.46
2018-05-12T14:59:34.114Z,29.86
2018-05-12T15:02:02.066Z,28.95
2018-05-12T15:04:30.046Z,27.78
2018-05-12T15:06:58.089Z,27.86
2018-05-12T15:09:26.046Z,29.20
2018-05-12T15:11:54.067Z,28.84
2018-05-12T15:14:22.092Z,28.74
2018-05-12T15:16:50.116Z,28.59
2018-05-12T15:19:18.122Z,28.92
2018-05-12T15:21:46.101Z,28.93
2018-05-12T15:24:14.161Z,31.25
2018-05-12T15:26:42.216Z,31.75
2018-05-12T15:29:10.275Z,32.85
2018-05-12T15:31:38.371Z,34.66
2018-05-12T15:34:06.385Z,35.09
2018-05-12T15:36:34.391Z,35.06
2018-05-12T15:39:02.412Z,36.67
2018-05-12T15:41:30.581Z,39.42
2018-05-12T15:43:58.636Z,39.51
2018-05-12T15:46:26.704Z,41.23
2018-05-12T15:48:54.731Z,40.87
2018-05-12T15:51:22.743Z,40.65
2018-05-12T15:53:51.128Z,43.80
2018-05-12T15:56:19.093Z,47.50
2018-05-12T15:58:47.181Z,47.81
2018-05-12T16:01:15.169Z,47.18
2018-05-12T16:03:43.235Z,48.41
2018-05-12T16:06:11.288Z,44.66
2018-05-12T16:08:39.323Z,48.02
2018-05-12T16:11:07.310Z,48.96
2018-05-12T16:13:35.320Z,46.86
2018-05-12T16:16:03.377Z,47.92
2018-05-12T16:18:31.427Z,49.54
2018-05-12T16:20:59.457Z,47.85
2018-05-12T16:23:27.450Z,45.07
2018-05-12T16:25:55.522Z,45.49
2018-05-12T16:28:23.528Z,46.44
2018-05-12T16:30:51.496Z,46.49
2018-05-12T16:33:19.511Z,49.04
2018-05-12T16:35:47.508Z,48.29
2018-05-12T16:38:15.558Z,49.38
2018-05-12T16:40:43.578Z,48.29
2018-05-12T16:43:11.675Z,49.16
2018-05-12T16:45:39.689Z,48.10
2018-05-12T16:48:07.733Z,50.21
2018-05-12T16:50:35.763Z,51.58
2018-05-12T16:53:03.811Z,56.39
2018-05-12T16:55:32.088Z,53.98
2018-05-12T16:58:00.157Z,52.14
2018-05-12T17:00:28.160Z,56.13
2018-05-12T17:02:56.106Z,53.87
2018-05-12T17:05:24.120Z,55.24
2018-05-12T17:07:52.146Z,55.59
2018-05-12T17:10:20.193Z,54.43
2018-05-12T17:12:48.203Z,54.40
2018-05-12T17:15:16.275Z,54.58
2018-05-12T17:17:44.336Z,56.25
2018-05-12T17:20:12.411Z,58.09
2018-05-12T17:22:40.519Z,57.01
2018-05-12T17:25:08.584Z,54.81
2018-05-12T17:27:36.622Z,55.96
2018-05-12T17:30:04.710Z,55.86
2018-05-12T17:32:32.922Z,59.01
2018-05-12T17:35:00.982Z,58.18
2018-05-12T17:37:29.096Z,57.31
2018-05-12T17:39:57.186Z,60.12
2018-05-12T17:42:25.283Z,60.31
2018-05-12T17:44:53.445Z,60.15
2018-05-12T17:47:21.588Z,62.80
2018-05-12T17:49:49.583Z,64.82
2018-05-12T17:52:17.554Z,64.55
2018-05-12T17:54:45.625Z,60.78
2018-05-12T17:57:14.202Z,61.38
2018-05-12T17:59:42.317Z,59.41
2018-05-12T18:02:10.327Z,57.40
2018-05-12T18:04:38.363Z,59.08
2018-05-12T18:07:06.382Z,59.34
2018-05-12T18:09:34.494Z,60.51
2018-05-12T18:12:02.630Z,57.44
2018-05-12T18:14:30.710Z,56.20
2018-05-12T18:16:58.773Z,55.90
2018-05-12T18:19:26.767Z,57.47
2018-05-12T18:21:54.786Z,57.93
2018-05-12T18:24:22.858Z,58.58
2018-05-12T18:26:50.862Z,58.04
2018-05-12T18:29:18.923Z,59.52
2018-05-12T18:31:46.961Z,60.48
2018-05-12T18:34:15.115Z,62.64
2018-05-12T18:36:43.133Z,61.92
2018-05-12T18:39:11.142Z,64.47
2018-05-12T18:41:39.247Z,64.17
2018-05-12T18:44:07.292Z,63.23
2018-05-12T18:46:35.291Z,62.60
2018-05-12T18:49:03.315Z,66.46
2018-05-12T18:51:31.348Z,65.80
2018-05-12T18:53:59.341Z,65.77
2018-05-12T18:56:27.355Z,65.45
2018-05-12T18:58:55.918Z,65.93
2018-05-12T19:01:23.971Z,65.81
2018-05-12T19:03:51.968Z,66.66
2018-05-12T19:06:19.957Z,65.04
2018-05-12T19:08:48.017Z,65.88
2018-05-12T19:11:16.010Z,62.25
2018-05-12T19:13:44.063Z,62.46
2018-05-12T19:16:12.083Z,64.59
2018-05-12T19:18:40.118Z,66.83
2018-05-12T19:21:08.111Z,62.85
2018-05-12T19:23:36.184Z,60.84
2018-05-12T19:26:04.222Z,62.42
2018-05-12T19:28:32.287Z,63.86
2018-05-12T19:31:00.342Z,63.38
2018-05-12T19:33:28.383Z,62.25
2018-05-12T19:35:56.427Z,62.39
2018-05-12T19:38:24.456Z,67.12
2018-05-12T19:40:52.483Z,67.55
2018-05-12T19:43:20.528Z,64.51
2018-05-12T19:45:48.553Z,62.98
2018-05-12T19:48:16.595Z,63.36
2018-05-12T19:50:44.628Z,61.89
2018-05-12T19:53:12.613Z,64.79
2018-05-12T19:55:40.655Z,66.59
2018-05-12T19:58:08.696Z,65.07
2018-05-12T20:00:36.868Z,62.50
2018-05-12T20:03:04.909Z,61.35
2018-05-12T20:05:32.897Z,63.87
2018-05-12T20:08:00.971Z,63.30
2018-05-12T20:10:28.970Z,64.23
2018-05-12T20:12:57.008Z,63.04
2018-05-12T20:15:25.099Z,66.56
2018-05-12T20:17:53.079Z,64.59
2018-05-12T20:20:21.243Z,67.31
2018-05-12T20:22:49.309Z,69.81
2018-05-12T20:25:17.281Z,70.54
2018-05-12T20:27:45.277Z,69.75
2018-05-12T20:30:13.373Z,71.49
2018-05-12T20:32:41.456Z,69.38
2018-05-12T20:35:09.579Z,65.68
2018-05-12T20:37:37.946Z,65.75
2018-05-12T20:40:06.018Z,66.08
2018-05-12T20:42:34.102Z,66.97
2018-05-12T20:45:02.143Z,68.49
2018-05-12T20:47:30.156Z,67.57
2018-05-12T20:49:58.191Z,69.05
2018-05-12T20:52:26.190Z,68.43
2018-05-12T20:54:54.203Z,68.24
2018-05-12T20:57:22.219Z,67.79
2018-05-12T20:59:50.230Z,68.15
2018-05-12T21:02:18.422Z,64.95
2018-05-12T21:04:46.396Z,66.04
2018-05-12T21:07:14.428Z,69.48
2018-05-12T21:09:42.606Z,68.29
2018-05-12T21:12:10.600Z,66.15
2018-05-12T21:14:38.619Z,64.97
2018-05-12T21:17:06.666Z,64.07
2018-05-12T21:19:34.779Z,63.69
2018-05-12T21:22:02.821Z,62.72
2018-05-12T21:24:30.860Z,65.56
2018-05-12T21:26:58.957Z,67.41
2018-05-12T21:29:27.068Z,68.88
2018-05-12T21:31:55.114Z,67.44
2018-05-12T21:34:23.198Z,65.27
2018-05-12T21:36:51.175Z,64.70
2018-05-12T21:39:19.208Z,64.68
2018-05-12T21:41:47.278Z,64.32
2018-05-12T21:44:15.407Z,63.18
2018-05-12T21:46:43.370Z,63.03
2018-05-12T21:49:11.395Z,62.20
2018-05-12T21:51:39.414Z,62.57
2018-05-12T21:54:07.335Z,63.27
2018-05-12T21:56:35.364Z,62.76
2018-05-12T21:59:03.448Z,63.64
2018-05-12T22:01:31.427Z,63.31
2018-05-12T22:03:59.675Z,63.84
2018-05-12T22:06:27.695Z,64.07
2018-05-12T22:08:55.760Z,63.89
2018-05-12T22:11:23.743Z,63.99
2018-05-12T22:13:51.702Z,62.86
2018-05-12T22:16:19.695Z,64.72
2018-05-12T22:18:47.723Z,64.49
2018-05-12T22:21:15.627Z,66.03
2018-05-12T22:23:43.585Z,68.19
2018-05-12T22:26:11.603Z,70.17
2018-05-12T22:28:39.579Z,70.77
2018-05-12T22:31:07.597Z,70.23
2018-05-12T22:33:35.576Z,68.75
2018-05-12T22:36:03.587Z,68.18
2018-05-12T22:38:31.591Z,66.97
2018-05-12T22:40:59.608Z,66.41
2018-05-12T22:43:27.621Z,66.85
2018-05-12T22:45:55.634Z,65.63
2018-05-12T22:48:23.598Z,65.03
2018-05-12T22:50:51.650Z,64.35
2018-05-12T22:53:19.726Z,64.30
2018-05-12T22:55:47.734Z,66.07
2018-05-12T22:58:15.732Z,65.45
2018-05-12T23:00:43.785Z,65.46
2018-05-12T23:03:11.779Z,64.52
2018-05-12T23:05:40.022Z,65.13
2018-05-12T23:08:08.084Z,65.14
2018-05-12T23:10:36.050Z,66.76
2018-05-12T23:13:04.086Z,71.13
2018-05-12T23:15:32.134Z,71.47
2018-05-12T23:18:00.153Z,70.89
2018-05-12T23:20:28.194Z,69.08
2018-05-12T23:22:56.220Z,67.72
2018-05-12T23:25:24.285Z,67.79
2018-05-12T23:27:52.277Z,68.54
2018-05-12T23:30:20.302Z,67.21
2018-05-12T23:32:48.451Z,65.81
2018-05-12T23:35:16.457Z,65.07
2018-05-12T23:37:44.459Z,64.89
2018-05-12T23:40:12.435Z,64.85
2018-05-12T23:42:40.502Z,64.05
2018-05-12T23:45:08.567Z,64.40
2018-05-12T23:47:36.577Z,64.10
2018-05-12T23:50:04.587Z,63.68
2018-05-12T23:52:32.629Z,63.58
2018-05-12T23:55:00.638Z,63.74
2018-05-12T23:57:28.666Z,65.66
2018-05-12T23:59:56.774Z,65.11
